sensor_id;sensor_type;location;lat;lon;timestamp;P1;durP1;ratioP1;P2;durP2;ratioP2
30378;SDS011;17168;49.164;9.060;2023-05-10T00:02:28;1.13;;;0.38;;
30378;SDS011;17168;49.164;9.060;2023-05-10T00:05:13;1.80;;;0.43;;
30378;SDS011;17168;49.164;9.060;2023-05-10T00:07:57;1.00;;;0.50;;
30378;SDS011;17168;49.164;9.060;2023-05-10T00:10:37;2.28;;;0.93;;
30378;SDS011;17168;49.164;9.060;2023-05-10T00:13:18;2.10;;;1.02;;
30378;SDS011;17168;49.164;9.060;2023-05-10T00:16:10;2.40;;;1.67;;
30378;SDS011;17168;49.164;9.060;2023-05-10T00:19:00;3.33;;;1.85;;
30378;SDS011;17168;49.164;9.060;2023-05-10T00:21:59;5.07;;;2.83;;
30378;SDS011;17168;49.164;9.060;2023-05-10T00:24:59;5.05;;;3.97;;
30378;SDS011;17168;49.164;9.060;2023-05-10T00:27:59;5.28;;;4.07;;
30378;SDS011;17168;49.164;9.060;2023-05-10T00:30:52;5.63;;;4.30;;
30378;SDS011;17168;49.164;9.060;2023-05-10T00:33:52;5.72;;;4.55;;
30378;SDS011;17168;49.164;9.060;2023-05-10T00:36:45;5.57;;;4.35;;
30378;SDS011;17168;49.164;9.060;2023-05-10T00:39:42;5.47;;;4.28;;
30378;SDS011;17168;49.164;9.060;2023-05-10T00:42:39;6.20;;;4.80;;
30378;SDS011;17168;49.164;9.060;2023-05-10T00:45:41;7.28;;;5.15;;
30378;SDS011;17168;49.164;9.060;2023-05-10T00:48:39;5.50;;;4.72;;
30378;SDS011;17168;49.164;9.060;2023-05-10T00:54:19;5.57;;;3.95;;
30378;SDS011;17168;49.164;9.060;2023-05-10T00:57:21;6.22;;;4.57;;
30378;SDS011;17168;49.164;9.060;2023-05-10T01:00:10;7.75;;;4.90;;
30378;SDS011;17168;49.164;9.060;2023-05-10T01:03:02;3.38;;;3.05;;
30378;SDS011;17168;49.164;9.060;2023-05-10T01:05:56;4.07;;;3.65;;
30378;SDS011;17168;49.164;9.060;2023-05-10T01:08:51;3.40;;;2.80;;
30378;SDS011;17168;49.164;9.060;2023-05-10T01:11:40;4.95;;;3.47;;
30378;SDS011;17168;49.164;9.060;2023-05-10T01:14:26;4.40;;;3.78;;
30378;SDS011;17168;49.164;9.060;2023-05-10T01:17:22;6.28;;;3.88;;
30378;SDS011;17168;49.164;9.060;2023-05-10T01:20:11;6.10;;;4.57;;
30378;SDS011;17168;49.164;9.060;2023-05-10T01:23:10;6.82;;;4.40;;
30378;SDS011;17168;49.164;9.060;2023-05-10T01:26:24;7.43;;;5.03;;
30378;SDS011;17168;49.164;9.060;2023-05-10T01:29:39;6.28;;;4.57;;
30378;SDS011;17168;49.164;9.060;2023-05-10T01:32:52;5.28;;;4.60;;
30378;SDS011;17168;49.164;9.060;2023-05-10T01:35:40;5.65;;;4.82;;
30378;SDS011;17168;49.164;9.060;2023-05-10T01:38:32;4.82;;;4.30;;
30378;SDS011;17168;49.164;9.060;2023-05-10T01:41:23;5.55;;;3.85;;
30378;SDS011;17168;49.164;9.060;2023-05-10T01:44:16;4.97;;;4.30;;
30378;SDS011;17168;49.164;9.060;2023-05-10T01:47:05;5.00;;;4.50;;
30378;SDS011;17168;49.164;9.060;2023-05-10T01:49:54;4.85;;;3.90;;
30378;SDS011;17168;49.164;9.060;2023-05-10T01:52:38;4.97;;;4.13;;
30378;SDS011;17168;49.164;9.060;2023-05-10T01:55:34;5.78;;;3.75;;
30378;SDS011;17168;49.164;9.060;2023-05-10T01:58:30;5.32;;;4.55;;
30378;SDS011;17168;49.164;9.060;2023-05-10T02:01:22;4.68;;;3.97;;
30378;SDS011;17168;49.164;9.060;2023-05-10T02:04:16;5.72;;;4.05;;
30378;SDS011;17168;49.164;9.060;2023-05-10T02:07:16;5.90;;;3.83;;
30378;SDS011;17168;49.164;9.060;2023-05-10T02:10:08;4.47;;;3.58;;
30378;SDS011;17168;49.164;9.060;2023-05-10T02:13:00;4.65;;;3.80;;
30378;SDS011;17168;49.164;9.060;2023-05-10T02:15:52;4.20;;;3.63;;
30378;SDS011;17168;49.164;9.060;2023-05-10T02:18:39;4.97;;;4.47;;
30378;SDS011;17168;49.164;9.060;2023-05-10T02:21:28;7.03;;;4.05;;
30378;SDS011;17168;49.164;9.060;2023-05-10T02:24:18;4.70;;;3.47;;
30378;SDS011;17168;49.164;9.060;2023-05-10T02:27:06;5.20;;;3.67;;
30378;SDS011;17168;49.164;9.060;2023-05-10T02:29:50;4.60;;;4.00;;
30378;SDS011;17168;49.164;9.060;2023-05-10T02:32:37;6.13;;;3.53;;
30378;SDS011;17168;49.164;9.060;2023-05-10T02:35:23;4.22;;;3.38;;
30378;SDS011;17168;49.164;9.060;2023-05-10T02:38:15;4.35;;;3.60;;
30378;SDS011;17168;49.164;9.060;2023-05-10T02:41:07;4.43;;;3.85;;
30378;SDS011;17168;49.164;9.060;2023-05-10T02:43:54;4.43;;;4.03;;
30378;SDS011;17168;49.164;9.060;2023-05-10T02:46:37;4.13;;;3.47;;
30378;SDS011;17168;49.164;9.060;2023-05-10T02:49:21;4.03;;;3.03;;
30378;SDS011;17168;49.164;9.060;2023-05-10T02:52:05;4.45;;;3.40;;
30378;SDS011;17168;49.164;9.060;2023-05-10T02:54:49;5.00;;;3.15;;
30378;SDS011;17168;49.164;9.060;2023-05-10T02:57:33;5.68;;;3.42;;
30378;SDS011;17168;49.164;9.060;2023-05-10T03:00:12;5.93;;;3.85;;
30378;SDS011;17168;49.164;9.060;2023-05-10T03:03:09;6.28;;;5.07;;
30378;SDS011;17168;49.164;9.060;2023-05-10T03:06:04;6.70;;;4.28;;
30378;SDS011;17168;49.164;9.060;2023-05-10T03:08:54;5.25;;;3.95;;
30378;SDS011;17168;49.164;9.060;2023-05-10T03:11:43;6.85;;;5.25;;
30378;SDS011;17168;49.164;9.060;2023-05-10T03:14:42;5.82;;;4.57;;
30378;SDS011;17168;49.164;9.060;2023-05-10T03:17:34;6.97;;;4.53;;
30378;SDS011;17168;49.164;9.060;2023-05-10T03:20:24;6.40;;;4.00;;
30378;SDS011;17168;49.164;9.060;2023-05-10T03:23:19;6.93;;;4.30;;
30378;SDS011;17168;49.164;9.060;2023-05-10T03:26:15;6.68;;;4.82;;
30378;SDS011;17168;49.164;9.060;2023-05-10T03:29:11;7.25;;;5.03;;
30378;SDS011;17168;49.164;9.060;2023-05-10T03:32:17;5.93;;;4.75;;
30378;SDS011;17168;49.164;9.060;2023-05-10T03:35:10;6.95;;;4.15;;
30378;SDS011;17168;49.164;9.060;2023-05-10T03:38:17;5.60;;;3.92;;
30378;SDS011;17168;49.164;9.060;2023-05-10T03:41:12;5.55;;;4.30;;
30378;SDS011;17168;49.164;9.060;2023-05-10T03:44:11;7.13;;;4.80;;
30378;SDS011;17168;49.164;9.060;2023-05-10T03:47:26;7.47;;;5.57;;
30378;SDS011;17168;49.164;9.060;2023-05-10T03:50:32;7.95;;;5.63;;
30378;SDS011;17168;49.164;9.060;2023-05-10T03:53:31;7.07;;;5.38;;
30378;SDS011;17168;49.164;9.060;2023-05-10T03:56:28;9.73;;;6.97;;
30378;SDS011;17168;49.164;9.060;2023-05-10T03:59:20;8.52;;;6.05;;
30378;SDS011;17168;49.164;9.060;2023-05-10T04:02:28;9.43;;;7.30;;
30378;SDS011;17168;49.164;9.060;2023-05-10T04:05:34;9.85;;;7.65;;
30378;SDS011;17168;49.164;9.060;2023-05-10T04:08:45;10.60;;;7.78;;
30378;SDS011;17168;49.164;9.060;2023-05-10T04:11:52;9.65;;;6.72;;
30378;SDS011;17168;49.164;9.060;2023-05-10T04:14:48;10.50;;;7.20;;
30378;SDS011;17168;49.164;9.060;2023-05-10T04:18:09;9.50;;;6.43;;
30378;SDS011;17168;49.164;9.060;2023-05-10T04:21:00;11.50;;;6.60;;
30378;SDS011;17168;49.164;9.060;2023-05-10T04:23:43;10.05;;;6.72;;
30378;SDS011;17168;49.164;9.060;2023-05-10T04:26:18;9.80;;;6.97;;
30378;SDS011;17168;49.164;9.060;2023-05-10T04:28:53;10.30;;;7.68;;
30378;SDS011;17168;49.164;9.060;2023-05-10T04:31:26;10.70;;;7.68;;
30378;SDS011;17168;49.164;9.060;2023-05-10T04:34:02;9.60;;;7.95;;
30378;SDS011;17168;49.164;9.060;2023-05-10T04:36:34;10.93;;;7.32;;
30378;SDS011;17168;49.164;9.060;2023-05-10T04:39:08;9.95;;;5.85;;
30378;SDS011;17168;49.164;9.060;2023-05-10T04:41:43;8.20;;;7.05;;
30378;SDS011;17168;49.164;9.060;2023-05-10T04:44:29;8.80;;;6.45;;
30378;SDS011;17168;49.164;9.060;2023-05-10T04:47:07;9.93;;;6.80;;
30378;SDS011;17168;49.164;9.060;2023-05-10T04:49:46;13.02;;;8.65;;
30378;SDS011;17168;49.164;9.060;2023-05-10T04:52:21;10.00;;;7.50;;
30378;SDS011;17168;49.164;9.060;2023-05-10T04:55:01;9.90;;;7.88;;
30378;SDS011;17168;49.164;9.060;2023-05-10T04:57:43;10.88;;;7.35;;
30378;SDS011;17168;49.164;9.060;2023-05-10T05:00:32;10.52;;;7.38;;
30378;SDS011;17168;49.164;9.060;2023-05-10T05:03:10;10.70;;;7.03;;
30378;SDS011;17168;49.164;9.060;2023-05-10T05:09:49;9.32;;;6.82;;
30378;SDS011;17168;49.164;9.060;2023-05-10T05:18:28;9.27;;;6.15;;
30378;SDS011;17168;49.164;9.060;2023-05-10T05:41:19;8.82;;;6.28;;
30378;SDS011;17168;49.164;9.060;2023-05-10T05:43:57;7.32;;;5.40;;
30378;SDS011;17168;49.164;9.060;2023-05-10T05:46:33;7.63;;;4.82;;
30378;SDS011;17168;49.164;9.060;2023-05-10T05:49:06;9.15;;;6.47;;
30378;SDS011;17168;49.164;9.060;2023-05-10T05:51:41;7.40;;;6.32;;
30378;SDS011;17168;49.164;9.060;2023-05-10T05:54:16;7.40;;;5.55;;
30378;SDS011;17168;49.164;9.060;2023-05-10T05:56:53;9.50;;;5.30;;
30378;SDS011;17168;49.164;9.060;2023-05-10T05:59:26;7.90;;;5.53;;
30378;SDS011;17168;49.164;9.060;2023-05-10T06:02:00;9.93;;;6.03;;
30378;SDS011;17168;49.164;9.060;2023-05-10T06:04:34;6.90;;;5.47;;
30378;SDS011;17168;49.164;9.060;2023-05-10T06:07:09;6.40;;;5.55;;
30378;SDS011;17168;49.164;9.060;2023-05-10T06:09:42;8.57;;;6.15;;
30378;SDS011;17168;49.164;9.060;2023-05-10T06:12:17;7.15;;;5.70;;
30378;SDS011;17168;49.164;9.060;2023-05-10T06:14:50;6.70;;;4.78;;
30378;SDS011;17168;49.164;9.060;2023-05-10T06:17:23;6.57;;;4.85;;
30378;SDS011;17168;49.164;9.060;2023-05-10T06:19:56;5.40;;;3.67;;
30378;SDS011;17168;49.164;9.060;2023-05-10T06:22:30;6.80;;;3.35;;
30378;SDS011;17168;49.164;9.060;2023-05-10T06:25:03;7.75;;;3.67;;
30378;SDS011;17168;49.164;9.060;2023-05-10T06:27:39;5.25;;;3.75;;
30378;SDS011;17168;49.164;9.060;2023-05-10T06:30:12;4.40;;;3.58;;
30378;SDS011;17168;49.164;9.060;2023-05-10T06:32:47;4.80;;;2.80;;
30378;SDS011;17168;49.164;9.060;2023-05-10T06:35:20;4.63;;;3.00;;
30378;SDS011;17168;49.164;9.060;2023-05-10T06:37:53;6.10;;;3.70;;
30378;SDS011;17168;49.164;9.060;2023-05-10T06:40:26;5.60;;;3.22;;
30378;SDS011;17168;49.164;9.060;2023-05-10T06:43:01;5.40;;;4.03;;
30378;SDS011;17168;49.164;9.060;2023-05-10T06:45:34;4.80;;;3.13;;
30378;SDS011;17168;49.164;9.060;2023-05-10T06:48:06;4.00;;;2.97;;
30378;SDS011;17168;49.164;9.060;2023-05-10T06:50:41;5.22;;;3.35;;
30378;SDS011;17168;49.164;9.060;2023-05-10T06:53:14;6.90;;;3.08;;
30378;SDS011;17168;49.164;9.060;2023-05-10T06:55:48;4.53;;;3.67;;
30378;SDS011;17168;49.164;9.060;2023-05-10T06:58:23;3.65;;;2.45;;
30378;SDS011;17168;49.164;9.060;2023-05-10T07:01:01;4.65;;;2.92;;
30378;SDS011;17168;49.164;9.060;2023-05-10T07:03:33;4.75;;;3.53;;
30378;SDS011;17168;49.164;9.060;2023-05-10T07:06:06;3.97;;;2.85;;
30378;SDS011;17168;49.164;9.060;2023-05-10T07:08:55;4.05;;;2.83;;
30378;SDS011;17168;49.164;9.060;2023-05-10T07:11:29;7.18;;;3.22;;
30378;SDS011;17168;49.164;9.060;2023-05-10T07:14:06;4.35;;;2.75;;
30378;SDS011;17168;49.164;9.060;2023-05-10T07:16:40;6.15;;;2.25;;
30378;SDS011;17168;49.164;9.060;2023-05-10T07:19:13;4.63;;;2.17;;
30378;SDS011;17168;49.164;9.060;2023-05-10T07:21:47;4.03;;;2.78;;
30378;SDS011;17168;49.164;9.060;2023-05-10T07:24:20;2.40;;;1.65;;
30378;SDS011;17168;49.164;9.060;2023-05-10T07:26:54;2.83;;;1.80;;
30378;SDS011;17168;49.164;9.060;2023-05-10T07:29:30;2.80;;;1.90;;
30378;SDS011;17168;49.164;9.060;2023-05-10T07:32:04;4.47;;;2.33;;
30378;SDS011;17168;49.164;9.060;2023-05-10T07:34:37;2.75;;;1.88;;
30378;SDS011;17168;49.164;9.060;2023-05-10T07:37:09;4.72;;;1.60;;
30378;SDS011;17168;49.164;9.060;2023-05-10T07:39:43;1.67;;;1.20;;
30378;SDS011;17168;49.164;9.060;2023-05-10T07:42:15;1.77;;;1.30;;
30378;SDS011;17168;49.164;9.060;2023-05-10T07:44:51;1.60;;;1.25;;
30378;SDS011;17168;49.164;9.060;2023-05-10T07:47:23;1.35;;;0.80;;
30378;SDS011;17168;49.164;9.060;2023-05-10T07:49:55;1.58;;;0.98;;
30378;SDS011;17168;49.164;9.060;2023-05-10T07:52:28;1.60;;;0.88;;
30378;SDS011;17168;49.164;9.060;2023-05-10T07:55:00;0.98;;;0.60;;
30378;SDS011;17168;49.164;9.060;2023-05-10T07:57:33;1.42;;;0.60;;
30378;SDS011;17168;49.164;9.060;2023-05-10T08:00:08;1.45;;;0.75;;
30378;SDS011;17168;49.164;9.060;2023-05-10T08:02:43;1.25;;;0.80;;
30378;SDS011;17168;49.164;9.060;2023-05-10T08:05:16;1.45;;;0.73;;
30378;SDS011;17168;49.164;9.060;2023-05-10T08:07:50;1.77;;;0.63;;
30378;SDS011;17168;49.164;9.060;2023-05-10T08:10:24;1.10;;;0.50;;
30378;SDS011;17168;49.164;9.060;2023-05-10T08:12:56;1.95;;;1.10;;
30378;SDS011;17168;49.164;9.060;2023-05-10T08:15:32;1.30;;;0.90;;
30378;SDS011;17168;49.164;9.060;2023-05-10T08:18:05;2.42;;;1.30;;
30378;SDS011;17168;49.164;9.060;2023-05-10T08:20:37;1.40;;;1.27;;
30378;SDS011;17168;49.164;9.060;2023-05-10T08:23:10;1.80;;;1.05;;
30378;SDS011;17168;49.164;9.060;2023-05-10T08:25:43;1.55;;;1.08;;
30378;SDS011;17168;49.164;9.060;2023-05-10T08:28:16;2.33;;;1.20;;
30378;SDS011;17168;49.164;9.060;2023-05-10T08:30:52;3.17;;;1.67;;
30378;SDS011;17168;49.164;9.060;2023-05-10T08:33:24;1.77;;;1.02;;
30378;SDS011;17168;49.164;9.060;2023-05-10T08:35:57;1.23;;;0.73;;
30378;SDS011;17168;49.164;9.060;2023-05-10T08:38:29;1.50;;;1.08;;
30378;SDS011;17168;49.164;9.060;2023-05-10T08:41:02;1.40;;;0.80;;
30378;SDS011;17168;49.164;9.060;2023-05-10T08:43:34;2.30;;;0.90;;
30378;SDS011;17168;49.164;9.060;2023-05-10T08:46:11;1.45;;;0.82;;
30378;SDS011;17168;49.164;9.060;2023-05-10T08:48:48;2.35;;;0.55;;
30378;SDS011;17168;49.164;9.060;2023-05-10T08:51:22;0.95;;;0.70;;
30378;SDS011;17168;49.164;9.060;2023-05-10T08:53:58;2.17;;;1.52;;
30378;SDS011;17168;49.164;9.060;2023-05-10T08:56:31;2.42;;;1.30;;
30378;SDS011;17168;49.164;9.060;2023-05-10T08:59:03;1.90;;;0.98;;
30378;SDS011;17168;49.164;9.060;2023-05-10T09:01:38;1.80;;;1.05;;
30378;SDS011;17168;49.164;9.060;2023-05-10T09:04:12;1.50;;;1.27;;
30378;SDS011;17168;49.164;9.060;2023-05-10T09:06:45;1.52;;;1.30;;
30378;SDS011;17168;49.164;9.060;2023-05-10T09:09:19;2.15;;;1.40;;
30378;SDS011;17168;49.164;9.060;2023-05-10T09:11:53;1.70;;;1.10;;
30378;SDS011;17168;49.164;9.060;2023-05-10T09:14:26;2.35;;;1.30;;
30378;SDS011;17168;49.164;9.060;2023-05-10T09:17:01;1.67;;;0.63;;
30378;SDS011;17168;49.164;9.060;2023-05-10T09:19:34;2.20;;;0.88;;
30378;SDS011;17168;49.164;9.060;2023-05-10T09:22:06;1.70;;;0.68;;
30378;SDS011;17168;49.164;9.060;2023-05-10T09:24:39;1.05;;;0.80;;
30378;SDS011;17168;49.164;9.060;2023-05-10T09:27:17;1.50;;;0.82;;
30378;SDS011;17168;49.164;9.060;2023-05-10T09:29:58;1.70;;;0.82;;
30378;SDS011;17168;49.164;9.060;2023-05-10T09:32:40;3.42;;;0.80;;
30378;SDS011;17168;49.164;9.060;2023-05-10T09:35:15;1.52;;;1.35;;
30378;SDS011;17168;49.164;9.060;2023-05-10T09:37:51;2.72;;;1.30;;
30378;SDS011;17168;49.164;9.060;2023-05-10T09:40:26;2.20;;;1.48;;
30378;SDS011;17168;49.164;9.060;2023-05-10T09:43:01;2.10;;;1.48;;
30378;SDS011;17168;49.164;9.060;2023-05-10T09:45:35;1.52;;;1.27;;
30378;SDS011;17168;49.164;9.060;2023-05-10T09:48:17;2.03;;;1.30;;
30378;SDS011;17168;49.164;9.060;2023-05-10T09:50:55;1.95;;;1.20;;
30378;SDS011;17168;49.164;9.060;2023-05-10T09:53:28;1.83;;;0.90;;
30378;SDS011;17168;49.164;9.060;2023-05-10T09:56:00;2.22;;;0.80;;
30378;SDS011;17168;49.164;9.060;2023-05-10T09:58:35;1.08;;;0.50;;
30378;SDS011;17168;49.164;9.060;2023-05-10T10:01:10;1.05;;;0.50;;
30378;SDS011;17168;49.164;9.060;2023-05-10T10:03:46;1.23;;;0.75;;
30378;SDS011;17168;49.164;9.060;2023-05-10T10:06:19;1.10;;;0.50;;
30378;SDS011;17168;49.164;9.060;2023-05-10T10:09:00;1.75;;;0.73;;
30378;SDS011;17168;49.164;9.060;2023-05-10T10:11:33;2.13;;;0.80;;
30378;SDS011;17168;49.164;9.060;2023-05-10T10:14:06;1.20;;;0.80;;
30378;SDS011;17168;49.164;9.060;2023-05-10T10:16:39;1.92;;;0.82;;
30378;SDS011;17168;49.164;9.060;2023-05-10T10:19:32;0.85;;;0.40;;
30378;SDS011;17168;49.164;9.060;2023-05-10T10:22:07;2.30;;;1.05;;
30378;SDS011;17168;49.164;9.060;2023-05-10T10:24:42;1.88;;;0.82;;
30378;SDS011;17168;49.164;9.060;2023-05-10T10:27:19;1.40;;;0.68;;
30378;SDS011;17168;49.164;9.060;2023-05-10T10:30:00;1.55;;;0.80;;
30378;SDS011;17168;49.164;9.060;2023-05-10T10:32:42;2.63;;;1.00;;
30378;SDS011;17168;49.164;9.060;2023-05-10T10:35:49;1.88;;;0.98;;
30378;SDS011;17168;49.164;9.060;2023-05-10T10:41:01;1.50;;;1.10;;
30378;SDS011;17168;49.164;9.060;2023-05-10T10:43:34;1.83;;;1.20;;
30378;SDS011;17168;49.164;9.060;2023-05-10T10:46:11;1.65;;;1.30;;
30378;SDS011;17168;49.164;9.060;2023-05-10T10:48:47;2.65;;;1.17;;
30378;SDS011;17168;49.164;9.060;2023-05-10T10:51:23;1.58;;;1.10;;
30378;SDS011;17168;49.164;9.060;2023-05-10T10:54:08;1.92;;;1.05;;
30378;SDS011;17168;49.164;9.060;2023-05-10T10:56:40;1.70;;;1.05;;
30378;SDS011;17168;49.164;9.060;2023-05-10T10:59:26;1.77;;;0.70;;
30378;SDS011;17168;49.164;9.060;2023-05-10T11:02:01;1.77;;;0.75;;
30378;SDS011;17168;49.164;9.060;2023-05-10T11:04:41;1.25;;;0.52;;
30378;SDS011;17168;49.164;9.060;2023-05-10T11:07:22;3.13;;;0.85;;
30378;SDS011;17168;49.164;9.060;2023-05-10T11:09:55;0.80;;;0.63;;
30378;SDS011;17168;49.164;9.060;2023-05-10T11:12:35;2.25;;;0.60;;
30378;SDS011;17168;49.164;9.060;2023-05-10T11:15:28;5.38;;;0.57;;
30378;SDS011;17168;49.164;9.060;2023-05-10T11:20:55;1.25;;;0.20;;
30378;SDS011;17168;49.164;9.060;2023-05-10T11:23:47;2.08;;;0.40;;
30378;SDS011;17168;49.164;9.060;2023-05-10T11:26:21;2.17;;;0.40;;
30378;SDS011;17168;49.164;9.060;2023-05-10T11:28:57;4.25;;;0.30;;
30378;SDS011;17168;49.164;9.060;2023-05-10T11:31:32;1.35;;;0.45;;
30378;SDS011;17168;49.164;9.060;2023-05-10T11:34:04;1.85;;;0.43;;
30378;SDS011;17168;49.164;9.060;2023-05-10T11:36:37;1.23;;;0.30;;
30378;SDS011;17168;49.164;9.060;2023-05-10T11:39:13;2.05;;;0.40;;
30378;SDS011;17168;49.164;9.060;2023-05-10T11:41:47;1.48;;;0.40;;
30378;SDS011;17168;49.164;9.060;2023-05-10T11:44:22;1.45;;;0.35;;
30378;SDS011;17168;49.164;9.060;2023-05-10T11:46:57;0.77;;;0.40;;
30378;SDS011;17168;49.164;9.060;2023-05-10T11:49:31;1.10;;;0.30;;
30378;SDS011;17168;49.164;9.060;2023-05-10T11:52:04;1.83;;;0.93;;
30378;SDS011;17168;49.164;9.060;2023-05-10T11:54:42;2.47;;;0.80;;
30378;SDS011;17168;49.164;9.060;2023-05-10T11:57:18;0.93;;;0.75;;
30378;SDS011;17168;49.164;9.060;2023-05-10T11:59:53;1.38;;;0.82;;
30378;SDS011;17168;49.164;9.060;2023-05-10T12:02:29;1.17;;;0.77;;
30378;SDS011;17168;49.164;9.060;2023-05-10T12:05:01;2.88;;;0.80;;
30378;SDS011;17168;49.164;9.060;2023-05-10T12:07:36;1.50;;;0.90;;
30378;SDS011;17168;49.164;9.060;2023-05-10T12:10:12;3.47;;;1.50;;
30378;SDS011;17168;49.164;9.060;2023-05-10T12:12:46;4.07;;;1.17;;
30378;SDS011;17168;49.164;9.060;2023-05-10T12:15:20;1.73;;;0.80;;
30378;SDS011;17168;49.164;9.060;2023-05-10T12:17:54;4.03;;;0.77;;
30378;SDS011;17168;49.164;9.060;2023-05-10T12:20:28;2.15;;;0.77;;
30378;SDS011;17168;49.164;9.060;2023-05-10T12:23:01;1.83;;;0.70;;
30378;SDS011;17168;49.164;9.060;2023-05-10T12:25:37;2.28;;;0.73;;
30378;SDS011;17168;49.164;9.060;2023-05-10T12:28:10;4.65;;;1.23;;
30378;SDS011;17168;49.164;9.060;2023-05-10T12:30:42;4.43;;;2.00;;
30378;SDS011;17168;49.164;9.060;2023-05-10T12:33:15;4.03;;;1.73;;
30378;SDS011;17168;49.164;9.060;2023-05-10T12:35:49;4.20;;;1.60;;
30378;SDS011;17168;49.164;9.060;2023-05-10T12:38:27;3.35;;;1.30;;
30378;SDS011;17168;49.164;9.060;2023-05-10T12:41:04;3.75;;;1.38;;
30378;SDS011;17168;49.164;9.060;2023-05-10T12:43:38;4.38;;;1.13;;
30378;SDS011;17168;49.164;9.060;2023-05-10T12:46:12;3.38;;;1.90;;
30378;SDS011;17168;49.164;9.060;2023-05-10T12:48:46;3.35;;;1.52;;
30378;SDS011;17168;49.164;9.060;2023-05-10T12:51:33;3.20;;;1.30;;
30378;SDS011;17168;49.164;9.060;2023-05-10T12:54:05;2.72;;;1.08;;
30378;SDS011;17168;49.164;9.060;2023-05-10T12:56:41;3.65;;;1.00;;
30378;SDS011;17168;49.164;9.060;2023-05-10T12:59:14;3.13;;;1.08;;
30378;SDS011;17168;49.164;9.060;2023-05-10T13:01:46;4.05;;;1.42;;
30378;SDS011;17168;49.164;9.060;2023-05-10T13:04:19;4.80;;;1.08;;
30378;SDS011;17168;49.164;9.060;2023-05-10T13:06:52;3.33;;;1.20;;
30378;SDS011;17168;49.164;9.060;2023-05-10T13:09:24;2.25;;;1.05;;
30378;SDS011;17168;49.164;9.060;2023-05-10T13:12:01;2.28;;;1.00;;
30378;SDS011;17168;49.164;9.060;2023-05-10T13:14:33;3.40;;;0.82;;
30378;SDS011;17168;49.164;9.060;2023-05-10T13:17:06;2.53;;;0.90;;
30378;SDS011;17168;49.164;9.060;2023-05-10T13:19:39;2.20;;;0.60;;
30378;SDS011;17168;49.164;9.060;2023-05-10T13:22:11;1.35;;;0.22;;
30378;SDS011;17168;49.164;9.060;2023-05-10T13:24:43;2.10;;;0.60;;
30378;SDS011;17168;49.164;9.060;2023-05-10T13:27:18;1.90;;;0.57;;
30378;SDS011;17168;49.164;9.060;2023-05-10T13:29:52;2.28;;;0.60;;
30378;SDS011;17168;49.164;9.060;2023-05-10T13:32:25;1.40;;;0.30;;
30378;SDS011;17168;49.164;9.060;2023-05-10T13:37:35;1.02;;;0.30;;
30378;SDS011;17168;49.164;9.060;2023-05-10T13:40:12;1.00;;;0.35;;
30378;SDS011;17168;49.164;9.060;2023-05-10T13:45:22;1.60;;;0.40;;
30378;SDS011;17168;49.164;9.060;2023-05-10T13:47:55;4.47;;;0.70;;
30378;SDS011;17168;49.164;9.060;2023-05-10T13:50:27;2.15;;;0.40;;
30378;SDS011;17168;49.164;9.060;2023-05-10T13:53:00;1.65;;;0.77;;
30378;SDS011;17168;49.164;9.060;2023-05-10T13:55:33;3.42;;;0.55;;
30378;SDS011;17168;49.164;9.060;2023-05-10T13:58:08;3.38;;;0.52;;
30378;SDS011;17168;49.164;9.060;2023-05-10T14:00:40;1.20;;;0.50;;
30378;SDS011;17168;49.164;9.060;2023-05-10T14:03:13;2.65;;;0.82;;
30378;SDS011;17168;49.164;9.060;2023-05-10T14:05:46;0.82;;;0.30;;
30378;SDS011;17168;49.164;9.060;2023-05-10T14:08:19;2.55;;;0.52;;
30378;SDS011;17168;49.164;9.060;2023-05-10T14:10:53;0.52;;;0.30;;
30378;SDS011;17168;49.164;9.060;2023-05-10T14:13:30;1.10;;;0.47;;
30378;SDS011;17168;49.164;9.060;2023-05-10T14:16:03;2.08;;;0.50;;
30378;SDS011;17168;49.164;9.060;2023-05-10T14:18:36;2.45;;;0.22;;
30378;SDS011;17168;49.164;9.060;2023-05-10T14:21:08;2.65;;;0.60;;
30378;SDS011;17168;49.164;9.060;2023-05-10T14:23:41;2.22;;;0.50;;
30378;SDS011;17168;49.164;9.060;2023-05-10T14:26:13;0.88;;;0.50;;
30378;SDS011;17168;49.164;9.060;2023-05-10T14:28:48;1.08;;;0.70;;
30378;SDS011;17168;49.164;9.060;2023-05-10T14:31:21;2.70;;;0.65;;
30378;SDS011;17168;49.164;9.060;2023-05-10T14:33:57;4.18;;;0.95;;
30378;SDS011;17168;49.164;9.060;2023-05-10T14:36:29;2.05;;;0.68;;
30378;SDS011;17168;49.164;9.060;2023-05-10T14:39:02;2.22;;;0.73;;
30378;SDS011;17168;49.164;9.060;2023-05-10T14:41:34;0.90;;;0.60;;
30378;SDS011;17168;49.164;9.060;2023-05-10T14:44:10;1.63;;;1.02;;
30378;SDS011;17168;49.164;9.060;2023-05-10T14:46:43;1.98;;;0.52;;
30378;SDS011;17168;49.164;9.060;2023-05-10T14:49:16;1.77;;;0.63;;
30378;SDS011;17168;49.164;9.060;2023-05-10T14:51:48;2.15;;;0.70;;
30378;SDS011;17168;49.164;9.060;2023-05-10T14:54:21;4.20;;;0.70;;
30378;SDS011;17168;49.164;9.060;2023-05-10T14:56:54;1.23;;;0.70;;
30378;SDS011;17168;49.164;9.060;2023-05-10T14:59:29;1.45;;;0.80;;
30378;SDS011;17168;49.164;9.060;2023-05-10T15:02:02;1.20;;;0.70;;
30378;SDS011;17168;49.164;9.060;2023-05-10T15:04:36;3.85;;;0.95;;
30378;SDS011;17168;49.164;9.060;2023-05-10T15:07:10;2.35;;;0.88;;
30378;SDS011;17168;49.164;9.060;2023-05-10T15:09:46;3.17;;;1.30;;
30378;SDS011;17168;49.164;9.060;2023-05-10T15:12:19;3.25;;;0.70;;
30378;SDS011;17168;49.164;9.060;2023-05-10T15:15:09;3.08;;;0.85;;
30378;SDS011;17168;49.164;9.060;2023-05-10T15:17:44;1.60;;;0.65;;
30378;SDS011;17168;49.164;9.060;2023-05-10T15:20:27;2.42;;;0.68;;
30378;SDS011;17168;49.164;9.060;2023-05-10T15:23:28;2.25;;;0.80;;
30378;SDS011;17168;49.164;9.060;2023-05-10T15:26:18;2.65;;;0.47;;
30378;SDS011;17168;49.164;9.060;2023-05-10T15:28:53;1.83;;;0.73;;
30378;SDS011;17168;49.164;9.060;2023-05-10T15:31:29;0.98;;;0.43;;
30378;SDS011;17168;49.164;9.060;2023-05-10T15:34:06;2.80;;;0.70;;
30378;SDS011;17168;49.164;9.060;2023-05-10T15:36:40;2.60;;;0.73;;
30378;SDS011;17168;49.164;9.060;2023-05-10T15:39:12;1.38;;;0.68;;
30378;SDS011;17168;49.164;9.060;2023-05-10T15:41:46;2.60;;;0.82;;
30378;SDS011;17168;49.164;9.060;2023-05-10T15:44:19;1.33;;;0.40;;
30378;SDS011;17168;49.164;9.060;2023-05-10T15:46:54;0.95;;;0.47;;
30378;SDS011;17168;49.164;9.060;2023-05-10T15:49:27;11.00;;;3.47;;
30378;SDS011;17168;49.164;9.060;2023-05-10T15:52:03;4.60;;;1.30;;
30378;SDS011;17168;49.164;9.060;2023-05-10T15:54:36;0.82;;;0.65;;
30378;SDS011;17168;49.164;9.060;2023-05-10T15:57:12;1.45;;;0.40;;
30378;SDS011;17168;49.164;9.060;2023-05-10T15:59:44;1.77;;;0.30;;
30378;SDS011;17168;49.164;9.060;2023-05-10T16:02:20;2.53;;;0.85;;
30378;SDS011;17168;49.164;9.060;2023-05-10T16:04:54;1.42;;;0.30;;
30378;SDS011;17168;49.164;9.060;2023-05-10T16:07:28;0.70;;;0.32;;
30378;SDS011;17168;49.164;9.060;2023-05-10T16:10:02;2.15;;;0.40;;
30378;SDS011;17168;49.164;9.060;2023-05-10T16:12:37;1.77;;;0.50;;
30378;SDS011;17168;49.164;9.060;2023-05-10T16:15:10;1.45;;;0.50;;
30378;SDS011;17168;49.164;9.060;2023-05-10T16:17:45;1.63;;;0.47;;
30378;SDS011;17168;49.164;9.060;2023-05-10T16:20:18;1.15;;;0.30;;
30378;SDS011;17168;49.164;9.060;2023-05-10T16:22:51;1.17;;;0.95;;
30378;SDS011;17168;49.164;9.060;2023-05-10T16:25:24;0.77;;;0.22;;
30378;SDS011;17168;49.164;9.060;2023-05-10T16:27:57;1.20;;;0.35;;
30378;SDS011;17168;49.164;9.060;2023-05-10T16:30:30;1.55;;;0.50;;
30378;SDS011;17168;49.164;9.060;2023-05-10T16:33:09;0.85;;;0.22;;
30378;SDS011;17168;49.164;9.060;2023-05-10T16:35:42;3.03;;;0.30;;
30378;SDS011;17168;49.164;9.060;2023-05-10T16:38:15;3.47;;;1.27;;
30378;SDS011;17168;49.164;9.060;2023-05-10T16:40:48;1.30;;;0.32;;
30378;SDS011;17168;49.164;9.060;2023-05-10T16:43:20;4.10;;;0.95;;
30378;SDS011;17168;49.164;9.060;2023-05-10T16:45:56;1.50;;;0.30;;
30378;SDS011;17168;49.164;9.060;2023-05-10T16:48:32;1.35;;;0.38;;